createdAt,value
2022-10-30T00:00:29.778Z,24.48
2022-10-30T00:02:59.158Z,21.02
2022-10-30T00:05:26.903Z,26.10
2022-10-30T00:07:56.445Z,25.65
2022-10-30T00:10:25.323Z,27.73
2022-10-30T00:12:54.781Z,22.25
2022-10-30T00:15:23.416Z,23.63
2022-10-30T00:17:50.169Z,17.95
2022-10-30T00:20:17.191Z,22.17
2022-10-30T00:22:44.141Z,25.52
2022-10-30T00:25:11.079Z,23.58
2022-10-30T00:27:37.897Z,19.92
2022-10-30T00:30:05.243Z,23.02
2022-10-30T00:32:32.019Z,20.55
2022-10-30T00:34:59.000Z,25.13
2022-10-30T00:37:25.816Z,24.45
2022-10-30T00:39:52.834Z,28.33
2022-10-30T00:42:19.631Z,24.20
2022-10-30T00:44:49.707Z,20.65
2022-10-30T00:47:34.334Z,22.08
2022-10-30T00:50:03.103Z,19.13
2022-10-30T00:52:34.128Z,20.73
2022-10-30T00:55:07.169Z,20.20
2022-10-30T00:57:35.562Z,20.55
2022-10-30T01:00:05.429Z,16.80
2022-10-30T01:02:33.087Z,23.25
2022-10-30T01:05:00.988Z,26.30
2022-10-30T01:07:27.949Z,21.15
2022-10-30T01:09:54.863Z,19.95
2022-10-30T01:12:21.660Z,21.58
2022-10-30T01:14:53.395Z,22.05
2022-10-30T01:17:32.372Z,19.55
2022-10-30T01:20:11.103Z,20.25
2022-10-30T01:23:03.878Z,19.85
2022-10-30T01:25:46.206Z,18.48
2022-10-30T01:28:50.914Z,30.60
2022-10-30T01:31:45.723Z,22.63
2022-10-30T01:34:38.625Z,18.92
2022-10-30T01:37:05.743Z,22.77
2022-10-30T01:39:39.278Z,24.70
2022-10-30T01:42:49.572Z,19.33
2022-10-30T01:45:34.649Z,25.92
2022-10-30T01:48:36.128Z,20.88
2022-10-30T01:51:14.218Z,24.92
2022-10-30T01:53:59.967Z,22.20
2022-10-30T01:56:35.623Z,17.88
2022-10-30T01:59:20.035Z,19.47
2022-10-30T02:01:47.671Z,17.38
2022-10-30T02:04:14.815Z,24.58
2022-10-30T02:06:41.814Z,17.77
2022-10-30T02:09:09.324Z,21.30
2022-10-30T02:11:38.139Z,24.02
2022-10-30T02:14:07.986Z,19.30
2022-10-30T02:16:38.942Z,23.67
2022-10-30T02:19:07.693Z,29.42
2022-10-30T02:21:34.921Z,27.33
2022-10-30T02:24:01.873Z,25.73
2022-10-30T02:26:28.795Z,20.70
2022-10-30T02:28:55.866Z,16.50
2022-10-30T02:31:22.891Z,20.73
2022-10-30T02:33:50.081Z,21.25
2022-10-30T02:36:17.170Z,17.63
2022-10-30T02:38:44.666Z,21.88
2022-10-30T02:41:12.006Z,19.38
2022-10-30T02:43:39.101Z,22.40
2022-10-30T02:46:06.175Z,20.45
2022-10-30T02:48:33.180Z,21.30
2022-10-30T02:51:04.234Z,23.48
2022-10-30T02:53:33.800Z,17.52
2022-10-30T02:56:08.687Z,19.15
2022-10-30T02:58:35.832Z,23.48
2022-10-30T03:01:20.995Z,14.10
2022-10-30T03:03:48.723Z,17.63
2022-10-30T03:06:19.511Z,20.15
2022-10-30T03:08:46.575Z,21.08
2022-10-30T03:11:18.801Z,18.63
2022-10-30T03:13:47.623Z,24.40
2022-10-30T03:16:21.383Z,18.95
2022-10-30T03:18:49.486Z,20.98
2022-10-30T03:21:41.270Z,20.02
2022-10-30T03:24:08.251Z,18.77
2022-10-30T03:26:35.187Z,20.63
2022-10-30T03:29:02.282Z,20.65
2022-10-30T03:31:31.525Z,20.33
2022-10-30T03:33:58.597Z,18.85
2022-10-30T03:36:26.730Z,18.65
2022-10-30T03:38:53.517Z,22.63
2022-10-30T03:41:20.551Z,22.27
2022-10-30T03:43:48.197Z,23.65
2022-10-30T03:46:15.156Z,22.48
2022-10-30T03:48:42.313Z,19.35
2022-10-30T03:51:09.475Z,27.20
2022-10-30T03:53:36.602Z,21.35
2022-10-30T03:56:04.880Z,22.25
2022-10-30T03:58:32.436Z,25.85
2022-10-30T04:01:04.564Z,22.25
2022-10-30T04:03:31.977Z,22.67
2022-10-30T04:05:59.416Z,24.15
2022-10-30T04:08:26.478Z,23.20
2022-10-30T04:10:53.865Z,28.38
2022-10-30T04:13:21.237Z,28.17
2022-10-30T04:15:56.200Z,22.25
2022-10-30T04:18:25.431Z,27.83
2022-10-30T04:20:52.770Z,24.92
2022-10-30T04:23:21.042Z,31.05
2022-10-30T04:25:49.015Z,32.25
2022-10-30T04:28:16.597Z,26.33
2022-10-30T04:30:44.240Z,26.98
2022-10-30T04:33:12.876Z,30.48
2022-10-30T04:35:41.466Z,22.02
2022-10-30T04:38:10.899Z,23.98
2022-10-30T04:40:40.128Z,24.85
2022-10-30T04:43:08.944Z,25.95
2022-10-30T04:45:36.897Z,28.13
2022-10-30T04:48:11.637Z,30.35
2022-10-30T04:50:39.158Z,22.90
2022-10-30T04:53:09.686Z,27.85
2022-10-30T04:55:36.708Z,26.67
2022-10-30T04:58:03.682Z,28.70
2022-10-30T05:00:31.741Z,21.35
2022-10-30T05:03:00.889Z,22.15
2022-10-30T05:05:29.548Z,25.45
2022-10-30T05:07:57.404Z,23.35
2022-10-30T05:10:25.004Z,21.60
2022-10-30T05:12:55.675Z,26.63
2022-10-30T05:15:23.054Z,22.92
2022-10-30T05:17:54.029Z,22.38
2022-10-30T05:20:22.469Z,23.48
2022-10-30T05:22:56.919Z,15.23
2022-10-30T05:25:24.449Z,20.42
2022-10-30T05:27:57.422Z,19.58
2022-10-30T05:30:24.803Z,19.02
2022-10-30T05:32:51.847Z,19.30
2022-10-30T05:35:19.308Z,17.40
2022-10-30T05:37:46.407Z,18.95
2022-10-30T05:40:13.399Z,17.77
2022-10-30T05:42:48.743Z,19.88
2022-10-30T05:45:17.029Z,19.40
2022-10-30T05:47:44.180Z,20.83
2022-10-30T05:50:12.561Z,19.92
2022-10-30T05:52:39.700Z,27.20
2022-10-30T05:55:09.325Z,26.30
2022-10-30T05:57:36.598Z,25.90
2022-10-30T06:00:04.345Z,31.05
2022-10-30T06:02:33.268Z,20.35
2022-10-30T06:05:00.663Z,23.60
2022-10-30T06:07:27.543Z,16.17
2022-10-30T06:09:54.665Z,24.63
2022-10-30T06:12:21.785Z,24.42
2022-10-30T06:14:48.789Z,22.10
2022-10-30T06:17:16.047Z,20.55
2022-10-30T06:19:43.390Z,28.63
2022-10-30T06:22:10.520Z,52.50
2022-10-30T06:24:37.437Z,31.83
2022-10-30T06:27:04.509Z,134.52
2022-10-30T06:29:32.538Z,37.22
2022-10-30T06:32:02.233Z,73.65
2022-10-30T06:34:32.724Z,49.40
2022-10-30T06:36:59.798Z,59.38
2022-10-30T06:39:26.924Z,60.50
2022-10-30T06:41:54.074Z,45.85
2022-10-30T06:44:20.954Z,62.75
2022-10-30T06:46:47.822Z,41.17
2022-10-30T06:49:15.053Z,52.35
2022-10-30T06:51:42.558Z,88.72
2022-10-30T06:54:09.634Z,75.88
2022-10-30T06:56:36.573Z,97.03
2022-10-30T06:59:03.672Z,67.00
2022-10-30T07:01:31.515Z,64.88
2022-10-30T07:03:58.648Z,65.32
2022-10-30T07:06:25.544Z,63.78
2022-10-30T07:08:52.536Z,44.70
2022-10-30T07:11:20.088Z,73.68
2022-10-30T07:13:47.084Z,39.58
2022-10-30T07:16:14.017Z,34.65
2022-10-30T07:18:40.904Z,22.70
2022-10-30T07:21:07.712Z,29.10
2022-10-30T07:23:34.500Z,62.83
2022-10-30T07:26:04.109Z,67.82
2022-10-30T07:28:31.811Z,66.25
2022-10-30T07:30:59.289Z,118.00
2022-10-30T07:33:26.299Z,89.80
2022-10-30T07:35:53.450Z,53.35
2022-10-30T07:38:20.487Z,93.72
2022-10-30T07:40:55.261Z,60.95
2022-10-30T07:43:22.396Z,50.72
2022-10-30T07:45:49.739Z,61.47
2022-10-30T07:48:17.714Z,43.25
2022-10-30T07:50:44.936Z,51.10
2022-10-30T07:53:12.075Z,22.60
2022-10-30T07:55:39.124Z,26.55
2022-10-30T07:58:05.995Z,45.78
2022-10-30T08:00:32.847Z,34.00
2022-10-30T08:03:00.140Z,19.25
2022-10-30T08:05:28.951Z,9.00
2022-10-30T08:07:57.267Z,10.07
2022-10-30T08:10:24.732Z,8.85
2022-10-30T08:12:51.788Z,8.50
2022-10-30T08:15:18.616Z,8.32
2022-10-30T08:17:48.613Z,9.73
2022-10-30T08:20:19.017Z,10.07
2022-10-30T08:22:50.923Z,9.50
2022-10-30T08:25:19.845Z,10.68
2022-10-30T08:27:57.820Z,15.88
2022-10-30T08:30:26.439Z,10.98
2022-10-30T08:32:58.646Z,11.88
2022-10-30T08:35:26.538Z,40.30
2022-10-30T08:37:57.882Z,18.48
2022-10-30T08:40:25.768Z,27.45
2022-10-30T08:42:57.161Z,14.65
2022-10-30T08:45:29.777Z,15.88
2022-10-30T08:48:01.177Z,12.27
2022-10-30T08:50:28.919Z,10.93
2022-10-30T08:52:56.327Z,13.55
2022-10-30T08:55:23.627Z,12.52
2022-10-30T08:57:50.582Z,24.77
2022-10-30T09:00:17.652Z,11.85
2022-10-30T09:02:45.600Z,19.02
2022-10-30T09:05:12.735Z,14.43
2022-10-30T09:07:39.748Z,15.95
2022-10-30T09:10:07.445Z,12.93
2022-10-30T09:12:34.556Z,13.65
2022-10-30T09:15:01.438Z,17.73
2022-10-30T09:17:28.518Z,11.55
2022-10-30T09:19:55.621Z,16.20
2022-10-30T09:22:22.802Z,17.75
2022-10-30T09:24:49.767Z,14.50
2022-10-30T09:27:16.807Z,15.63
2022-10-30T09:29:43.937Z,14.93
2022-10-30T09:32:11.170Z,20.52
2022-10-30T09:34:41.089Z,11.70
2022-10-30T09:37:08.437Z,13.05
2022-10-30T09:39:35.403Z,12.90
2022-10-30T09:42:47.290Z,11.05
2022-10-30T09:45:33.493Z,13.02
2022-10-30T09:48:08.242Z,13.70
2022-10-30T09:50:46.151Z,12.52
2022-10-30T09:53:13.046Z,13.30
2022-10-30T09:55:49.757Z,14.13
2022-10-30T09:58:36.036Z,13.05
2022-10-30T10:01:14.143Z,15.07
2022-10-30T10:06:26.775Z,16.67
2022-10-30T10:09:20.714Z,15.48
2022-10-30T10:12:00.619Z,14.10
2022-10-30T10:14:36.185Z,16.17
2022-10-30T10:17:05.812Z,13.30
2022-10-30T10:19:39.052Z,15.75
2022-10-30T10:22:45.118Z,16.00
2022-10-30T10:25:17.892Z,13.32
2022-10-30T10:28:10.932Z,16.17
2022-10-30T10:30:50.344Z,21.70
2022-10-30T10:33:29.222Z,17.40
2022-10-30T10:36:23.586Z,15.70
2022-10-30T10:39:16.367Z,13.82
2022-10-30T10:42:05.224Z,13.65
2022-10-30T10:44:43.223Z,13.50
2022-10-30T10:47:47.783Z,15.90
2022-10-30T10:50:32.701Z,12.80
2022-10-30T10:53:01.674Z,15.05
2022-10-30T10:55:33.653Z,13.70
2022-10-30T10:58:10.195Z,17.23
2022-10-30T11:00:37.738Z,17.30
2022-10-30T11:03:21.481Z,14.82
2022-10-30T11:06:04.906Z,12.45
2022-10-30T11:08:33.379Z,11.75
2022-10-30T11:11:03.161Z,13.82
2022-10-30T11:13:37.416Z,13.52
2022-10-30T11:16:23.085Z,14.60
2022-10-30T11:18:55.144Z,16.20
2022-10-30T11:21:24.849Z,15.32
2022-10-30T11:23:53.557Z,14.93
2022-10-30T11:26:20.494Z,13.93
2022-10-30T11:28:52.494Z,12.82
2022-10-30T11:31:22.774Z,15.85
2022-10-30T11:33:50.560Z,14.82
2022-10-30T11:36:23.098Z,16.48
2022-10-30T11:38:50.737Z,15.18
2022-10-30T11:41:18.237Z,12.32
2022-10-30T11:43:46.664Z,13.70
2022-10-30T11:46:22.295Z,11.35
2022-10-30T11:48:55.310Z,17.48
2022-10-30T11:51:39.470Z,12.23
2022-10-30T11:54:07.795Z,10.50
2022-10-30T11:56:35.710Z,8.30
2022-10-30T11:59:04.058Z,9.13
2022-10-30T12:01:39.318Z,8.82
2022-10-30T12:04:24.613Z,11.00
2022-10-30T12:07:22.727Z,11.07
2022-10-30T12:09:50.001Z,9.35
2022-10-30T12:12:28.993Z,10.13
2022-10-30T12:14:56.082Z,10.50
2022-10-30T12:17:23.688Z,11.25
2022-10-30T12:19:54.072Z,7.82
2022-10-30T12:22:32.327Z,9.50
2022-10-30T12:25:02.905Z,11.32
2022-10-30T12:27:32.408Z,14.38
2022-10-30T12:30:14.828Z,12.13
2022-10-30T12:33:11.521Z,10.73
2022-10-30T12:35:44.677Z,13.43
2022-10-30T12:38:30.515Z,9.23
2022-10-30T12:41:04.195Z,14.25
2022-10-30T12:43:34.784Z,13.18
2022-10-30T12:46:13.804Z,12.63
2022-10-30T12:48:50.730Z,11.98
2022-10-30T12:51:41.849Z,7.55
2022-10-30T12:54:27.402Z,8.80
2022-10-30T12:57:07.343Z,19.52
2022-10-30T12:59:55.482Z,8.82
2022-10-30T13:02:34.724Z,13.10
2022-10-30T13:05:27.875Z,11.73
2022-10-30T13:08:23.015Z,9.45
2022-10-30T13:10:51.737Z,10.00
2022-10-30T13:13:30.266Z,16.27
2022-10-30T13:16:00.614Z,9.73
2022-10-30T13:18:30.609Z,11.02
2022-10-30T13:21:23.644Z,9.63
2022-10-30T13:24:06.871Z,9.07
2022-10-30T13:26:33.870Z,10.13
2022-10-30T13:29:15.928Z,10.82
2022-10-30T13:32:03.991Z,12.82
2022-10-30T13:34:31.101Z,9.88
2022-10-30T13:37:18.566Z,9.48
2022-10-30T13:40:19.154Z,10.27
2022-10-30T13:43:16.382Z,11.15
2022-10-30T13:45:43.542Z,10.80
2022-10-30T13:48:41.361Z,13.50
2022-10-30T13:51:37.480Z,13.40
2022-10-30T13:54:21.663Z,10.95
2022-10-30T13:56:50.875Z,11.95
2022-10-30T13:59:27.101Z,8.90
2022-10-30T14:02:24.894Z,8.90
2022-10-30T14:04:58.315Z,8.23
2022-10-30T14:07:38.633Z,11.55
2022-10-30T14:10:22.586Z,11.90
2022-10-30T14:13:05.202Z,11.10
2022-10-30T14:15:42.863Z,6.35
2022-10-30T14:18:13.067Z,10.25
2022-10-30T14:20:49.694Z,12.07
2022-10-30T14:26:17.385Z,13.38
2022-10-30T14:28:51.275Z,14.00
2022-10-30T14:31:20.405Z,10.43
2022-10-30T14:33:54.147Z,12.60
2022-10-30T14:36:25.639Z,11.40
2022-10-30T14:38:59.082Z,13.95
2022-10-30T14:41:45.211Z,8.52
2022-10-30T14:44:55.385Z,9.35
2022-10-30T14:47:28.192Z,11.98
2022-10-30T14:50:46.229Z,10.90
2022-10-30T14:53:28.021Z,13.18
2022-10-30T14:56:24.226Z,8.85
2022-10-30T14:59:14.328Z,8.63
2022-10-30T15:01:56.513Z,12.55
2022-10-30T15:05:03.831Z,13.15
2022-10-30T15:07:42.825Z,15.63
2022-10-30T15:10:34.165Z,8.20
2022-10-30T15:13:11.835Z,15.30
2022-10-30T15:15:39.013Z,16.05
2022-10-30T15:18:18.256Z,10.60
2022-10-30T15:20:52.443Z,15.27
2022-10-30T15:23:23.079Z,13.52
2022-10-30T15:25:53.336Z,15.48
2022-10-30T15:28:29.362Z,9.23
2022-10-30T15:31:05.444Z,15.25
2022-10-30T15:33:35.816Z,10.80
2022-10-30T15:36:03.549Z,10.80
2022-10-30T15:38:30.789Z,12.07
2022-10-30T15:41:02.235Z,11.95
2022-10-30T15:43:34.027Z,10.50
2022-10-30T15:46:01.239Z,13.63
2022-10-30T15:48:34.341Z,11.45
2022-10-30T15:51:05.716Z,12.27
2022-10-30T15:53:51.160Z,13.13
2022-10-30T15:56:44.346Z,9.63
2022-10-30T15:59:25.600Z,15.55
2022-10-30T16:01:55.106Z,8.10
2022-10-30T16:04:24.626Z,10.43
2022-10-30T16:06:57.682Z,7.18
2022-10-30T16:09:25.784Z,12.88
2022-10-30T16:11:55.172Z,10.27
2022-10-30T16:14:25.181Z,10.38
2022-10-30T16:16:52.519Z,12.90
2022-10-30T16:19:29.965Z,10.75
2022-10-30T16:21:58.646Z,11.90
2022-10-30T16:24:35.792Z,11.07
2022-10-30T16:27:07.983Z,11.23
2022-10-30T16:29:35.659Z,10.48
2022-10-30T16:32:03.411Z,11.48
2022-10-30T16:34:37.632Z,13.18
2022-10-30T16:37:06.747Z,11.02
2022-10-30T16:39:36.351Z,14.30
2022-10-30T16:42:04.605Z,11.50
2022-10-30T16:44:34.016Z,9.43
2022-10-30T16:47:07.227Z,14.98
2022-10-30T16:49:36.117Z,11.65
2022-10-30T16:52:06.217Z,12.40
2022-10-30T16:54:38.179Z,15.15
2022-10-30T16:57:15.273Z,12.35
2022-10-30T16:59:49.481Z,548.28
2022-10-30T17:02:24.039Z,1590.63
2022-10-30T17:05:10.149Z,821.47
2022-10-30T17:07:38.635Z,1999.90
2022-10-30T17:10:45.276Z,814.50
2022-10-30T17:13:34.292Z,1999.90
2022-10-30T17:16:20.348Z,1689.68
2022-10-30T17:18:56.793Z,817.45
2022-10-30T17:21:39.583Z,537.83
2022-10-30T17:24:19.167Z,228.93
2022-10-30T17:26:55.019Z,211.65
2022-10-30T17:29:52.189Z,77.95
2022-10-30T17:32:20.787Z,15.98
2022-10-30T17:34:48.509Z,15.88
2022-10-30T17:37:15.604Z,12.27
2022-10-30T17:39:42.609Z,15.27
2022-10-30T17:42:10.410Z,16.45
2022-10-30T17:44:37.314Z,18.65
2022-10-30T17:47:33.409Z,11.13
2022-10-30T17:50:00.397Z,18.40
2022-10-30T17:52:27.219Z,17.83
2022-10-30T17:54:54.603Z,18.50
2022-10-30T17:57:22.817Z,19.50
2022-10-30T17:59:49.704Z,17.38
2022-10-30T18:02:22.852Z,15.25
2022-10-30T18:04:51.914Z,14.73
2022-10-30T18:07:19.050Z,14.07
2022-10-30T18:09:46.429Z,16.52
2022-10-30T18:12:15.842Z,26.30
2022-10-30T18:14:44.383Z,18.17
2022-10-30T18:17:11.486Z,24.88
2022-10-30T18:19:38.480Z,25.10
2022-10-30T18:22:05.965Z,23.33
2022-10-30T18:24:33.111Z,23.67
2022-10-30T18:27:00.179Z,25.13
2022-10-30T18:29:27.032Z,20.60
2022-10-30T18:31:53.951Z,19.52
2022-10-30T18:34:21.699Z,16.48
2022-10-30T18:36:49.274Z,17.60
2022-10-30T18:39:16.636Z,19.98
2022-10-30T18:41:46.352Z,25.17
2022-10-30T18:44:15.211Z,20.75
2022-10-30T18:46:42.760Z,20.58
2022-10-30T18:49:09.740Z,16.98
2022-10-30T18:51:36.916Z,19.20
2022-10-30T18:54:07.957Z,14.15
2022-10-30T18:56:34.760Z,19.58
2022-10-30T18:59:02.559Z,16.73
2022-10-30T19:01:33.487Z,21.27
2022-10-30T19:04:02.405Z,19.45
2022-10-30T19:06:29.608Z,23.60
2022-10-30T19:08:56.542Z,15.48
2022-10-30T19:11:25.347Z,17.65
2022-10-30T19:13:54.401Z,18.02
2022-10-30T19:16:24.478Z,21.05
2022-10-30T19:18:51.394Z,19.30
2022-10-30T19:21:23.307Z,20.73
2022-10-30T19:23:50.301Z,17.00
2022-10-30T19:26:17.689Z,12.98
2022-10-30T19:28:45.863Z,16.40
2022-10-30T19:31:18.024Z,18.80
2022-10-30T19:33:45.917Z,20.50
2022-10-30T19:36:33.844Z,17.20
2022-10-30T19:39:07.499Z,20.50
2022-10-30T19:41:37.287Z,22.40
2022-10-30T19:44:04.599Z,18.40
2022-10-30T19:46:31.466Z,17.58
2022-10-30T19:48:59.627Z,24.50
2022-10-30T19:51:28.212Z,17.20
2022-10-30T19:53:55.193Z,20.98
2022-10-30T19:56:22.312Z,19.60
2022-10-30T19:58:49.562Z,16.48
2022-10-30T20:01:16.825Z,18.00
2022-10-30T20:03:44.470Z,17.05
2022-10-30T20:06:13.147Z,17.45
2022-10-30T20:08:40.755Z,17.25
2022-10-30T20:11:08.182Z,16.70
2022-10-30T20:13:35.404Z,19.05
2022-10-30T20:16:05.287Z,20.75
2022-10-30T20:22:25.643Z,20.83
2022-10-30T20:24:56.178Z,17.25
2022-10-30T20:27:23.113Z,17.50
2022-10-30T20:29:50.760Z,17.38
2022-10-30T20:32:18.049Z,18.48
2022-10-30T20:34:44.975Z,20.08
2022-10-30T20:37:11.826Z,14.60
2022-10-30T20:39:38.982Z,20.25
2022-10-30T20:42:06.311Z,15.25
2022-10-30T20:44:33.176Z,16.35
2022-10-30T20:47:00.203Z,16.50
2022-10-30T20:49:27.374Z,22.15
2022-10-30T20:51:54.430Z,24.75
2022-10-30T20:54:21.401Z,20.10
2022-10-30T20:56:48.321Z,23.02
2022-10-30T20:59:15.270Z,19.90
2022-10-30T21:01:42.789Z,22.08
2022-10-30T21:04:10.281Z,20.30
2022-10-30T21:06:37.869Z,16.77
2022-10-30T21:09:04.884Z,18.83
2022-10-30T21:11:31.941Z,21.23
2022-10-30T21:13:59.297Z,19.88
2022-10-30T21:16:26.497Z,19.10
2022-10-30T21:18:56.333Z,17.50
2022-10-30T21:21:25.899Z,18.13
2022-10-30T21:23:56.722Z,15.45
2022-10-30T21:26:25.807Z,13.27
2022-10-30T21:28:52.971Z,15.10
2022-10-30T21:31:20.710Z,15.20
2022-10-30T21:33:47.791Z,17.77
2022-10-30T21:36:17.543Z,18.48
2022-10-30T21:38:44.728Z,15.95
2022-10-30T21:41:13.942Z,15.48
2022-10-30T21:43:41.152Z,17.27
2022-10-30T21:46:12.618Z,16.60
2022-10-30T21:48:39.681Z,19.08
2022-10-30T21:51:09.025Z,15.25
2022-10-30T21:53:36.597Z,17.20
2022-10-30T21:56:05.689Z,15.95
2022-10-30T21:58:32.818Z,17.73
2022-10-30T22:01:00.001Z,16.00
2022-10-30T22:03:27.329Z,17.45
2022-10-30T22:05:54.405Z,15.90
2022-10-30T22:08:21.866Z,18.40
2022-10-30T22:10:48.726Z,16.55
2022-10-30T22:13:15.713Z,43.50
2022-10-30T22:15:43.058Z,25.98
2022-10-30T22:18:11.845Z,15.40
2022-10-30T22:20:38.979Z,15.23
2022-10-30T22:23:05.819Z,18.00
2022-10-30T22:25:32.564Z,19.30
2022-10-30T22:28:00.062Z,16.15
2022-10-30T22:30:27.483Z,19.73
2022-10-30T22:32:54.447Z,17.85
2022-10-30T22:35:21.526Z,16.42
2022-10-30T22:37:49.351Z,21.98
2022-10-30T22:40:16.697Z,16.05
2022-10-30T22:42:43.745Z,15.27
2022-10-30T22:45:11.019Z,18.98
2022-10-30T22:47:38.059Z,19.77
2022-10-30T22:50:05.732Z,16.55
2022-10-30T22:52:32.880Z,19.45
2022-10-30T22:54:59.907Z,20.02
2022-10-30T22:57:27.367Z,14.20
2022-10-30T22:59:54.833Z,16.42
2022-10-30T23:02:21.882Z,16.17
2022-10-30T23:04:50.567Z,13.18
2022-10-30T23:07:17.797Z,16.35
2022-10-30T23:09:44.762Z,18.15
2022-10-30T23:12:11.740Z,16.75
2022-10-30T23:14:38.921Z,14.15
2022-10-30T23:17:05.919Z,21.42
2022-10-30T23:19:33.179Z,19.25
2022-10-30T23:22:00.443Z,16.90
2022-10-30T23:24:27.978Z,16.45
2022-10-30T23:26:55.132Z,18.65
2022-10-30T23:29:22.486Z,19.70
2022-10-30T23:31:49.735Z,18.90
2022-10-30T23:34:17.229Z,17.23
2022-10-30T23:36:44.654Z,15.90
2022-10-30T23:39:16.108Z,13.63
2022-10-30T23:41:43.750Z,17.02
2022-10-30T23:44:15.922Z,20.55
2022-10-30T23:46:43.187Z,15.50
2022-10-30T23:49:10.195Z,17.63
2022-10-30T23:51:37.480Z,15.15
2022-10-30T23:54:05.154Z,15.85
2022-10-30T23:56:32.130Z,15.57
2022-10-30T23:58:59.354Z,13.77
